createdAt,value
2023-03-23T15:58:21.283Z,971.01
2023-03-23T15:59:28.294Z,956.11
2023-03-23T16:00:21.288Z,932.90
2023-03-23T16:01:21.347Z,916.09
2023-03-23T16:02:29.343Z,879.09
2023-03-23T16:03:28.570Z,853.97
2023-03-23T16:04:21.249Z,830.30
2023-03-23T16:05:21.217Z,807.29
2023-03-23T16:06:24.977Z,808.01
2023-03-23T16:07:21.304Z,858.51
2023-03-23T16:08:21.204Z,913.02
2023-03-23T16:09:21.163Z,862.42
2023-03-23T16:10:21.176Z,899.24
2023-03-23T16:11:21.132Z,898.12
2023-03-23T16:12:21.198Z,879.34
2023-03-23T16:13:21.136Z,832.33
2023-03-23T16:14:21.110Z,779.50
2023-03-23T16:15:21.129Z,761.29
2023-03-23T16:16:21.234Z,754.58
2023-03-23T16:17:21.447Z,758.07
2023-03-23T16:18:21.072Z,769.39
2023-03-23T16:19:21.053Z,937.98
2023-03-23T16:20:21.542Z,947.54
2023-03-23T16:21:21.092Z,951.94
2023-03-23T16:22:21.038Z,949.46
2023-03-23T16:23:21.012Z,929.24
2023-03-23T16:24:21.048Z,896.11
2023-03-23T16:25:22.861Z,896.28
2023-03-23T16:26:20.979Z,870.64
2023-03-23T16:27:20.984Z,833.29
2023-03-23T16:28:20.974Z,755.64
2023-03-23T16:29:40.165Z,749.19
2023-03-23T16:30:21.954Z,751.40
2023-03-23T16:31:20.967Z,766.50
2023-03-23T16:32:20.965Z,757.50
2023-03-23T16:33:21.000Z,758.25
2023-03-23T16:34:23.882Z,754.98
2023-03-23T16:35:21.235Z,751.57
2023-03-23T16:36:21.917Z,752.01
2023-03-23T16:37:20.887Z,750.06
2023-03-23T16:38:20.863Z,747.84
2023-03-23T16:39:20.847Z,748.60
2023-03-23T16:40:20.831Z,748.88
2023-03-23T16:41:20.814Z,750.16
2023-03-23T16:42:20.821Z,750.91
2023-03-23T16:43:20.790Z,751.02
2023-03-23T16:44:23.506Z,751.43
2023-03-23T16:45:20.871Z,752.28
2023-03-23T16:46:20.844Z,749.46
2023-03-23T16:47:20.741Z,747.45
2023-03-23T16:48:20.717Z,751.45
2023-03-23T16:49:20.998Z,757.80
2023-03-23T16:50:20.743Z,761.33
2023-03-23T16:51:20.761Z,765.56
2023-03-23T16:52:21.069Z,770.76
2023-03-23T16:53:20.678Z,761.27
2023-03-23T16:54:20.673Z,759.78
2023-03-23T16:55:20.656Z,756.32
2023-03-23T16:56:21.081Z,750.73
2023-03-23T16:57:22.388Z,752.72
2023-03-23T16:58:20.614Z,753.66
2023-03-23T16:59:20.940Z,752.83
2023-03-23T17:00:21.691Z,747.98
2023-03-23T17:01:20.625Z,745.33
2023-03-23T17:02:20.715Z,745.10
2023-03-23T17:03:20.696Z,743.99
2023-03-23T17:04:20.632Z,742.59
2023-03-23T17:05:20.625Z,741.05
2023-03-23T17:06:20.550Z,740.30
2023-03-23T17:07:20.551Z,739.99
2023-03-23T17:08:20.861Z,740.42
2023-03-23T17:09:20.552Z,740.06
2023-03-23T17:10:20.548Z,739.36
2023-03-23T17:11:20.922Z,738.58
2023-03-23T17:12:20.795Z,738.12
2023-03-23T17:13:23.403Z,738.57
2023-03-23T17:14:20.496Z,738.48
2023-03-23T17:15:23.224Z,737.83
2023-03-23T17:16:20.473Z,737.85
2023-03-23T17:17:20.778Z,737.17
2023-03-23T17:18:22.322Z,737.74
2023-03-23T17:19:20.709Z,738.07
2023-03-23T17:20:20.697Z,737.63
2023-03-23T17:21:20.436Z,737.84
2023-03-23T17:22:20.391Z,737.29
2023-03-23T17:23:23.193Z,737.04
2023-03-23T17:24:20.392Z,737.56
2023-03-23T17:25:20.379Z,737.77
2023-03-23T17:26:20.607Z,737.24
2023-03-23T17:27:20.319Z,737.15
2023-03-23T17:33:09.403Z,736.29
2023-03-23T17:34:08.993Z,734.58
2023-03-23T17:35:10.880Z,733.94
2023-03-23T17:36:11.059Z,733.75
2023-03-23T17:37:08.997Z,733.58
2023-03-23T17:38:08.959Z,733.16
2023-03-23T17:39:08.962Z,733.08
2023-03-23T17:40:08.943Z,733.12
2023-03-23T17:41:08.959Z,733.47
2023-03-23T17:42:08.946Z,733.45
2023-03-23T17:43:08.898Z,733.21
2023-03-23T17:44:09.060Z,733.03
2023-03-23T17:45:10.720Z,733.10
2023-03-23T17:46:09.301Z,733.05
2023-03-23T17:47:08.889Z,733.44
2023-03-23T17:48:15.900Z,734.04
2023-03-23T17:49:17.213Z,734.89
2023-03-23T17:50:18.455Z,735.82
2023-03-23T17:51:18.919Z,737.12
2023-03-23T17:52:17.644Z,737.46
2023-03-23T17:53:08.844Z,738.08
2023-03-23T17:54:08.808Z,738.32
2023-03-23T17:55:09.821Z,738.30
2023-03-23T17:56:08.810Z,738.31
2023-03-23T17:57:10.003Z,737.96
2023-03-23T17:58:08.751Z,737.96
2023-03-23T17:59:08.733Z,737.13
2023-03-23T18:00:09.018Z,736.68
2023-03-23T18:01:08.830Z,736.71
2023-03-23T18:02:08.769Z,737.67
2023-03-23T18:03:08.705Z,737.89
2023-03-23T18:04:08.824Z,738.12
2023-03-23T18:05:09.019Z,738.39
2023-03-23T18:06:08.655Z,739.06
2023-03-23T18:07:08.651Z,739.52
2023-03-23T18:08:09.165Z,739.86
2023-03-23T18:09:08.614Z,739.68
2023-03-23T18:10:11.413Z,739.76
2023-03-23T18:11:08.624Z,739.63
2023-03-23T18:12:08.593Z,740.00
2023-03-23T18:13:08.599Z,739.58
2023-03-23T18:14:08.548Z,739.43
2023-03-23T18:15:08.580Z,739.41
2023-03-23T18:16:08.819Z,739.19
2023-03-23T18:17:10.283Z,739.20
2023-03-23T18:18:08.514Z,739.26
2023-03-23T18:19:08.515Z,739.07
2023-03-23T18:20:08.529Z,738.97
2023-03-23T18:21:08.511Z,739.03
2023-03-23T18:22:09.494Z,739.35
2023-03-23T18:24:21.046Z,740.64
2023-03-23T18:25:21.019Z,739.65
2023-03-23T18:26:21.040Z,739.35
2023-03-23T18:27:21.056Z,739.21
2023-03-23T18:28:23.680Z,739.16
2023-03-23T18:29:20.940Z,739.17
2023-03-23T18:30:20.976Z,739.33
2023-03-23T18:31:21.443Z,739.05
2023-03-23T18:32:21.257Z,739.04
2023-03-23T18:33:20.970Z,739.19
2023-03-23T18:34:20.875Z,739.19
2023-03-23T18:35:20.941Z,739.45
2023-03-23T18:36:20.966Z,739.30
2023-03-23T18:37:20.843Z,739.13
2023-03-23T18:38:20.894Z,739.23
2023-03-23T18:39:20.837Z,739.10
2023-03-23T18:40:20.864Z,738.97
2023-03-23T18:41:20.849Z,738.80
2023-03-23T18:42:20.797Z,738.75
2023-03-23T18:43:23.567Z,739.16
2023-03-23T18:44:22.655Z,739.44
2023-03-23T18:45:20.821Z,739.64
2023-03-23T18:46:20.798Z,739.62
2023-03-23T18:47:20.744Z,740.09
2023-03-23T18:48:20.745Z,740.45
2023-03-23T18:49:21.004Z,740.80
2023-03-23T18:50:20.758Z,740.72
2023-03-23T18:51:20.966Z,740.64
2023-03-23T18:52:20.669Z,741.15
2023-03-23T18:53:22.398Z,741.18
2023-03-23T18:54:20.953Z,740.94
2023-03-23T18:55:21.704Z,740.43
2023-03-23T18:56:21.977Z,739.64
2023-03-23T18:57:21.928Z,739.18
2023-03-23T18:58:20.626Z,739.17
2023-03-23T18:59:20.588Z,738.99
2023-03-23T19:00:20.582Z,739.28
2023-03-23T19:01:20.617Z,739.15
2023-03-23T19:02:20.651Z,739.60
2023-03-23T19:03:20.951Z,739.84
2023-03-23T19:04:21.575Z,739.70
2023-03-23T19:05:20.536Z,739.68
2023-03-23T19:06:20.793Z,739.80
2023-03-23T19:07:20.566Z,739.76
2023-03-23T19:08:20.509Z,740.02
2023-03-23T19:09:20.514Z,740.04
2023-03-23T19:10:20.504Z,739.93
2023-03-23T19:11:20.454Z,740.30
2023-03-23T19:12:20.503Z,741.08
2023-03-23T19:13:20.437Z,741.19
2023-03-23T19:14:20.449Z,741.54
2023-03-23T19:15:20.530Z,741.53
2023-03-23T19:16:20.426Z,741.17
2023-03-23T19:17:20.410Z,741.35
2023-03-23T19:18:20.390Z,741.01
2023-03-23T19:19:20.499Z,741.11
2023-03-23T19:20:39.492Z,741.08
2023-03-23T19:21:25.729Z,741.04
2023-03-23T19:22:20.340Z,741.56
2023-03-23T19:23:20.313Z,741.83
2023-03-23T19:24:20.354Z,742.45
2023-03-23T19:25:21.012Z,742.86
2023-03-23T19:26:20.331Z,743.79
2023-03-23T19:27:21.031Z,744.25
2023-03-23T19:29:03.833Z,744.72
2023-03-23T19:31:45.745Z,747.62
2023-03-23T19:32:43.770Z,747.32
2023-03-23T19:33:43.628Z,747.44
2023-03-23T19:34:43.659Z,747.85
2023-03-23T19:36:53.791Z,749.08
2023-03-23T19:37:46.643Z,748.57
2023-03-23T19:38:55.183Z,749.11
2023-03-23T19:39:46.102Z,749.11
2023-03-23T19:40:45.819Z,749.33
2023-03-23T19:41:47.044Z,749.59
2023-03-23T19:42:45.525Z,750.06
2023-03-23T19:43:45.768Z,750.19
2023-03-23T19:44:46.290Z,750.89
2023-03-23T19:45:47.985Z,751.57
2023-03-23T19:46:45.359Z,751.54
2023-03-23T19:47:47.980Z,751.95
2023-03-23T19:48:46.607Z,752.35
2023-03-23T19:49:45.402Z,752.57
2023-03-23T19:50:49.318Z,752.55
2023-03-23T19:51:52.326Z,752.53
2023-03-23T19:52:46.174Z,752.24
2023-03-23T19:53:45.142Z,752.92
2023-03-23T19:54:46.085Z,752.91
2023-03-23T19:55:45.192Z,753.05
2023-03-23T19:56:45.462Z,753.09
2023-03-23T19:57:47.936Z,753.02
2023-03-23T19:58:45.411Z,753.24
2023-03-23T19:59:45.109Z,753.39
2023-03-23T20:00:45.839Z,753.09
2023-03-23T20:01:45.434Z,753.32
2023-03-23T20:02:45.496Z,753.63
2023-03-23T20:03:45.779Z,753.57
2023-03-23T20:04:46.043Z,753.50
2023-03-23T20:05:49.046Z,753.45
2023-03-23T20:06:46.203Z,753.83
2023-03-23T20:07:48.714Z,754.06
2023-03-23T20:08:46.372Z,754.42
2023-03-23T20:09:45.338Z,754.50
2023-03-23T20:10:44.954Z,754.59
2023-03-23T20:11:45.213Z,755.13
2023-03-23T20:12:45.517Z,755.77
2023-03-23T20:13:45.258Z,756.15
2023-03-23T20:14:45.611Z,756.19
2023-03-23T20:15:45.043Z,755.98
2023-03-23T20:16:46.615Z,755.71
2023-03-23T20:17:44.925Z,756.12
2023-03-23T20:18:46.770Z,756.52
2023-03-23T20:19:45.486Z,756.91
2023-03-23T20:20:44.908Z,757.45
2023-03-23T20:21:44.815Z,758.04
2023-03-23T20:23:55.297Z,760.16
2023-03-23T20:24:55.535Z,759.38
2023-03-23T20:25:56.638Z,758.67
2023-03-23T20:26:55.627Z,758.09
2023-03-23T20:27:55.145Z,757.56
2023-03-23T20:28:54.777Z,757.77
2023-03-23T20:29:55.369Z,757.31
2023-03-23T20:31:19.754Z,757.88
2023-03-23T20:31:55.725Z,757.55
2023-03-23T20:32:54.741Z,757.38
2023-03-23T20:34:00.182Z,757.61
2023-03-23T20:34:55.722Z,757.91
2023-03-23T20:35:54.730Z,758.10
2023-03-23T20:36:54.698Z,758.32
2023-03-23T20:37:54.656Z,758.23
2023-03-23T20:38:54.648Z,758.72
2023-03-23T20:39:54.655Z,759.13
2023-03-23T20:40:54.626Z,759.54
2023-03-23T20:41:54.693Z,759.71
2023-03-23T20:42:54.886Z,759.97
2023-03-23T20:43:54.605Z,760.12
2023-03-23T20:44:56.358Z,759.98
2023-03-23T20:45:54.564Z,759.82
2023-03-23T20:46:54.559Z,759.99
2023-03-23T20:47:54.627Z,759.82
2023-03-23T20:48:54.543Z,759.82
2023-03-23T20:49:54.549Z,759.83
2023-03-23T20:50:54.514Z,759.86
2023-03-23T20:51:54.502Z,760.07
2023-03-23T20:52:54.494Z,759.98
2023-03-23T20:53:54.476Z,760.04
2023-03-23T20:54:54.476Z,759.95
2023-03-23T20:55:54.692Z,759.73
2023-03-23T20:56:56.116Z,759.58
2023-03-23T20:57:54.469Z,759.46
2023-03-23T20:58:54.424Z,759.41
2023-03-23T20:59:54.414Z,759.38
2023-03-23T21:00:54.429Z,759.31
2023-03-23T21:01:54.405Z,759.69
2023-03-23T21:02:54.463Z,759.30
2023-03-23T21:03:54.418Z,759.11
2023-03-23T21:04:54.347Z,759.19
2023-03-23T21:05:54.647Z,759.13
2023-03-23T21:06:54.365Z,758.82
2023-03-23T21:07:54.336Z,758.53
2023-03-23T21:08:54.295Z,758.44
2023-03-23T21:09:54.298Z,758.62
2023-03-23T21:10:54.278Z,758.37
2023-03-23T21:11:54.270Z,757.81
2023-03-23T21:12:54.284Z,757.20
2023-03-23T21:13:54.274Z,757.29
2023-03-23T21:14:54.251Z,757.29
2023-03-23T21:15:54.254Z,756.15
2023-03-23T21:16:54.213Z,755.23
2023-03-23T21:17:54.306Z,754.26
2023-03-23T21:18:54.219Z,753.08
2023-03-23T21:19:54.165Z,752.04
2023-03-23T21:20:54.171Z,751.40
2023-03-23T21:21:56.398Z,750.81
2023-03-23T21:23:03.018Z,749.90
2023-03-23T21:24:04.926Z,749.17
2023-03-23T21:25:02.468Z,748.75
2023-03-23T21:26:01.482Z,748.35
2023-03-23T21:27:02.002Z,747.70
2023-03-23T21:28:02.439Z,746.95
2023-03-23T21:29:01.505Z,746.55
2023-03-23T21:29:54.044Z,746.08
2023-03-23T21:30:54.107Z,745.81
2023-03-23T21:32:08.314Z,745.38
2023-03-23T21:32:55.074Z,745.48
2023-03-23T21:33:54.001Z,745.23
2023-03-23T21:34:56.835Z,745.10
2023-03-23T21:35:54.168Z,745.04
2023-03-23T21:36:53.986Z,744.56
2023-03-23T21:37:53.956Z,744.12
2023-03-23T21:38:53.957Z,743.99
2023-03-23T21:39:53.974Z,743.61
2023-03-23T21:40:54.250Z,743.57
2023-03-23T21:41:53.950Z,743.72
2023-03-23T21:42:53.911Z,743.73
2023-03-23T21:43:53.894Z,743.92
2023-03-23T21:44:53.901Z,743.72
2023-03-23T21:45:53.887Z,743.59
2023-03-23T21:46:53.869Z,743.35
2023-03-23T21:47:53.905Z,743.18
2023-03-23T21:48:53.852Z,742.96
2023-03-23T21:49:53.827Z,742.89
2023-03-23T21:50:53.825Z,743.04
2023-03-23T21:51:53.800Z,743.27
2023-03-23T21:52:53.824Z,743.36
2023-03-23T21:53:53.758Z,743.17
2023-03-23T21:54:53.754Z,742.97
2023-03-23T21:55:53.756Z,742.58
2023-03-23T21:56:53.779Z,742.87
2023-03-23T21:57:53.737Z,743.18
2023-03-23T21:58:53.766Z,743.61
2023-03-23T21:59:53.700Z,743.54
2023-03-23T22:00:53.707Z,743.59
2023-03-23T22:01:53.744Z,743.84
2023-03-23T22:02:53.696Z,744.15
2023-03-23T22:03:53.676Z,744.46
2023-03-23T22:04:53.639Z,744.72
2023-03-23T22:05:53.649Z,745.08
2023-03-23T22:06:53.616Z,745.25
2023-03-23T22:07:53.608Z,745.30
2023-03-23T22:08:53.653Z,745.54
2023-03-23T22:09:53.576Z,745.24
2023-03-23T22:11:00.539Z,745.45
2023-03-23T22:11:54.570Z,745.03
2023-03-23T22:12:55.518Z,745.11
2023-03-23T22:13:53.546Z,744.94
2023-03-23T22:14:53.579Z,744.88
2023-03-23T22:15:53.529Z,745.12
2023-03-23T22:16:53.514Z,745.32
2023-03-23T22:17:53.551Z,745.98
2023-03-23T22:18:53.478Z,746.47
2023-03-23T22:19:53.452Z,747.12
2023-03-23T22:20:53.468Z,747.05
2023-03-23T22:21:53.437Z,746.92
2023-03-23T22:22:53.427Z,747.61
2023-03-23T22:23:53.463Z,747.53
2023-03-23T22:24:53.420Z,747.61
2023-03-23T22:25:53.383Z,747.99
2023-03-23T22:26:53.399Z,748.31
2023-03-23T22:27:53.370Z,748.03
2023-03-23T22:28:53.369Z,748.05
2023-03-23T22:29:53.356Z,748.15
2023-03-23T22:30:53.328Z,748.50
2023-03-23T22:31:53.376Z,748.68
2023-03-23T22:32:53.352Z,748.79
2023-03-23T22:33:53.524Z,748.92
2023-03-23T22:34:53.283Z,749.25
2023-03-23T22:35:53.389Z,749.72
2023-03-23T22:36:53.269Z,749.78
2023-03-23T22:37:53.263Z,749.65
2023-03-23T22:38:53.242Z,749.55
2023-03-23T22:39:53.237Z,749.44
2023-03-23T22:40:53.245Z,749.38
2023-03-23T22:41:53.210Z,749.61
2023-03-23T22:42:53.213Z,749.75
2023-03-23T22:43:53.264Z,749.47
2023-03-23T22:44:53.191Z,749.59
2023-03-23T22:45:53.204Z,749.68
2023-03-23T22:46:53.196Z,750.47
2023-03-23T22:47:53.180Z,750.97
2023-03-23T22:48:53.467Z,750.77
2023-03-23T22:49:53.136Z,750.70
2023-03-23T22:50:53.105Z,750.78
2023-03-23T22:51:53.096Z,750.55
2023-03-23T22:52:53.126Z,750.33
2023-03-23T22:53:53.098Z,750.13
2023-03-23T22:54:53.073Z,750.29
2023-03-23T22:55:53.090Z,750.36
2023-03-23T22:56:53.130Z,750.74
2023-03-23T22:57:54.915Z,750.96
2023-03-23T22:58:53.357Z,750.61
2023-03-23T22:59:53.005Z,750.55
2023-03-23T23:00:53.029Z,750.45
2023-03-23T23:01:53.046Z,750.47
2023-03-23T23:02:54.853Z,750.15
2023-03-23T23:03:54.818Z,749.80
2023-03-23T23:04:52.961Z,749.83
2023-03-23T23:05:53.209Z,749.84
2023-03-23T23:07:03.003Z,749.66
2023-03-23T23:07:53.907Z,749.64
2023-03-23T23:08:52.949Z,749.43
2023-03-23T23:09:52.890Z,749.24
2023-03-23T23:10:52.859Z,749.20
2023-03-23T23:12:01.720Z,749.14
2023-03-23T23:13:00.891Z,749.15
2023-03-23T23:13:59.888Z,749.54
2023-03-23T23:15:01.726Z,749.95
2023-03-23T23:15:52.868Z,750.02
2023-03-23T23:16:53.221Z,750.16
2023-03-23T23:17:52.837Z,750.78
2023-03-23T23:18:53.043Z,751.10
2023-03-23T23:19:55.528Z,751.03
2023-03-23T23:20:52.751Z,751.10
2023-03-23T23:21:52.771Z,751.26
2023-03-23T23:22:52.732Z,751.09
2023-03-23T23:23:52.730Z,751.36
2023-03-23T23:24:52.722Z,751.92
2023-03-23T23:25:52.700Z,751.87
2023-03-23T23:26:53.002Z,752.29
2023-03-23T23:27:54.527Z,752.25
2023-03-23T23:28:52.713Z,752.45
2023-03-23T23:29:52.959Z,752.86
2023-03-23T23:30:52.661Z,753.40
2023-03-23T23:31:55.460Z,753.54
2023-03-23T23:32:52.661Z,753.23
2023-03-23T23:33:52.603Z,753.28
2023-03-23T23:34:54.411Z,753.11
2023-03-23T23:35:52.904Z,753.47
2023-03-23T23:36:52.839Z,753.26
2023-03-23T23:37:52.573Z,753.44
2023-03-23T23:38:52.559Z,753.57
2023-03-23T23:39:52.546Z,753.92
2023-03-23T23:40:52.524Z,753.61
2023-03-23T23:41:52.522Z,753.02
2023-03-23T23:42:52.522Z,753.00
2023-03-23T23:43:52.486Z,752.87
2023-03-23T23:44:52.492Z,752.31
2023-03-23T23:45:52.504Z,751.95
2023-03-23T23:46:52.517Z,751.71
2023-03-23T23:47:52.458Z,751.39
2023-03-23T23:48:52.465Z,751.31
2023-03-23T23:49:52.690Z,751.27
2023-03-23T23:50:52.403Z,750.76
2023-03-23T23:51:52.435Z,750.30
2023-03-23T23:52:52.415Z,749.68
2023-03-23T23:53:52.387Z,749.25
2023-03-23T23:54:52.376Z,748.94
2023-03-23T23:55:52.397Z,748.71
2023-03-23T23:56:52.427Z,748.53
2023-03-23T23:57:52.320Z,748.86
2023-03-23T23:58:52.381Z,748.82
2023-03-23T23:59:52.587Z,749.12
